Time;durP1;ratioP1;P1;durP2;ratioP2;P2;SDS_P1;SDS_P2;PMS_P1;PMS_P2;Temp;Humidity;BMP_temperature;BMP_pressure;BME280_temperature;BME280_humidity;BME280_pressure;Samples;Min_cycle;Max_cycle;Signal;HPM_P1;HPM_P2
2022/06/01 03:33:04;;;;;;;2.55;0.90;;;13.10;41.60;;;;;;4989097;28;21333;-70
2022/06/01 03:35:33;;;;;;;1.17;0.57;;;13.10;42.20;;;;;;4950720;29;20051;-70
2022/06/01 03:38:00;;;;;;;3.22;1.10;;;13.10;41.10;;;;;;4954234;28;20051;-70
2022/06/01 03:40:29;;;;;;;2.85;0.77;;;13.10;41.90;;;;;;4953122;29;20507;-70
2022/06/01 03:42:57;;;;;;;4.70;0.93;;;13.10;41.30;;;;;;4936829;29;20039;-70
2022/06/01 03:48:09;;;;;;;1.85;0.73;;;13.20;41.50;;;;;;4940962;29;20110;-70
2022/06/01 03:50:36;;;;;;;0.93;0.50;;;13.20;41.40;;;;;;4953298;29;20035;-70
2022/06/01 03:53:05;;;;;;;4.55;0.90;;;13.10;41.50;;;;;;4952984;29;20382;-69
2022/06/01 03:55:32;;;;;;;0.98;0.63;;;13.10;41.90;;;;;;4936578;29;20035;-70
2022/06/01 03:57:59;;;;;;;2.47;0.57;;;13.20;41.70;;;;;;4957167;28;20503;-70
2022/06/01 04:00:27;;;;;;;2.80;0.68;;;13.20;42.00;;;;;;4945401;29;20166;-70
2022/06/01 04:02:54;;;;;;;3.95;0.55;;;13.20;41.50;;;;;;4952674;29;20122;-70
2022/06/01 04:05:22;;;;;;;4.03;0.40;;;13.20;41.50;;;;;;4939829;28;20050;-70
2022/06/01 04:07:49;;;;;;;2.45;0.65;;;13.20;41.20;;;;;;4936429;29;20043;-69
2022/06/01 04:10:17;;;;;;;0.73;0.55;;;13.20;41.90;;;;;;4952610;29;20482;-69
2022/06/01 04:12:44;;;;;;;2.22;1.00;;;13.20;41.60;;;;;;4935443;29;20079;-69
2022/06/01 04:15:11;;;;;;;1.13;0.50;;;13.20;41.40;;;;;;4951619;29;20090;-70
2022/06/01 04:17:39;;;;;;;0.77;0.60;;;13.20;42.50;;;;;;4949456;29;20039;-68
2022/06/01 04:20:06;;;;;;;2.58;0.40;;;13.20;43.00;;;;;;4950675;29;20386;-67
2022/06/01 04:22:34;;;;;;;0.85;0.45;;;13.20;42.50;;;;;;4937827;29;20114;-68
2022/06/01 04:25:01;;;;;;;4.43;0.73;;;13.20;42.90;;;;;;4917228;29;20036;-68
2022/06/01 04:27:28;;;;;;;5.68;0.90;;;13.20;43.10;;;;;;4948689;29;20035;-69
2022/06/01 04:29:56;;;;;;;1.10;0.63;;;13.20;43.70;;;;;;4950343;29;20107;-68
2022/06/01 04:32:28;;;;;;;0.88;0.60;;;13.20;43.50;;;;;;4932895;29;20050;-68
2022/06/01 04:34:55;;;;;;;3.00;0.80;;;13.20;43.90;;;;;;4932838;29;20450;-67
2022/06/01 04:37:22;;;;;;;1.38;0.60;;;13.20;44.30;;;;;;4932905;29;20143;-67
2022/06/01 04:39:49;;;;;;;1.70;0.70;;;13.20;43.90;;;;;;4950150;29;20031;-67
2022/06/01 04:42:16;;;;;;;2.70;0.52;;;13.20;44.10;;;;;;4949972;29;20121;-68
2022/06/01 04:44:44;;;;;;;2.53;0.73;;;13.10;43.80;;;;;;4950113;29;20678;-67
2022/06/01 04:47:11;;;;;;;5.25;1.25;;;13.10;44.00;;;;;;4932931;29;20058;-67
2022/06/01 04:49:39;;;;;;;0.88;0.63;;;13.10;44.30;;;;;;4950193;29;20043;-67
2022/06/01 04:52:06;;;;;;;5.22;0.98;;;13.10;44.90;;;;;;4950725;29;20038;-67
2022/06/01 04:54:34;;;;;;;1.15;0.65;;;13.10;44.80;;;;;;4933146;29;20039;-67
2022/06/01 04:57:01;;;;;;;2.22;0.70;;;13.10;44.70;;;;;;4949941;29;20042;-67
2022/06/01 04:59:28;;;;;;;5.75;0.93;;;13.10;44.60;;;;;;4932878;29;20032;-67
2022/06/01 05:01:55;;;;;;;1.73;0.50;;;13.10;45.60;;;;;;4953807;29;20108;-67
2022/06/01 06:57:50;;;;;;;1.00;0.77;;;12.70;50.90;;;;;;5003002;28;20221;-66
2022/06/01 07:00:18;;;;;;;2.53;0.85;;;12.70;51.30;;;;;;4969853;28;20106;-66
2022/06/01 07:02:45;;;;;;;4.40;1.00;;;12.70;50.90;;;;;;4987184;28;20137;-66
2022/06/01 07:06:08;;;;;;;8.07;0.80;;;12.60;50.60;;;;;;4989588;28;20089;-65
2022/06/01 07:08:03;;;;;;;2.25;0.90;;;12.60;51.10;;;;;;4983326;28;20060;-66
2022/06/01 07:10:30;;;;;;;1.23;0.77;;;12.60;51.20;;;;;;4990545;28;20389;-65
2022/06/01 07:12:57;;;;;;;2.28;1.05;;;12.50;51.70;;;;;;4988437;28;20553;-66
2022/06/01 07:15:25;;;;;;;2.53;0.77;;;12.50;51.60;;;;;;4989995;28;20034;-65
2022/06/01 07:17:52;;;;;;;2.85;0.75;;;12.50;51.10;;;;;;5005097;28;20038;-65
2022/06/01 07:20:21;;;;;;;4.38;0.77;;;12.50;52.30;;;;;;5004767;28;20030;-65
2022/06/01 07:22:48;;;;;;;2.92;0.93;;;12.50;51.70;;;;;;4981852;28;20029;-66
2022/06/01 07:25:15;;;;;;;3.42;1.00;;;12.40;52.20;;;;;;5009465;28;20441;-65
2022/06/01 07:27:42;;;;;;;3.38;1.00;;;12.40;51.30;;;;;;4993089;28;20457;-65
2022/06/01 07:30:10;;;;;;;2.63;1.10;;;12.40;51.50;;;;;;5004281;28;20065;-65
2022/06/01 07:32:37;;;;;;;1.83;0.70;;;12.40;52.30;;;;;;4999544;28;20029;-66
2022/06/01 07:35:06;;;;;;;4.43;0.88;;;12.40;51.90;;;;;;4998493;28;20492;-66
2022/06/01 07:43:07;;;;;;;2.88;0.70;;;12.40;52.00;;;;;;4989101;28;20571;-66
2022/06/01 07:45:35;;;;;;;2.63;0.73;;;12.40;52.20;;;;;;4989447;28;20113;-67
2022/06/01 07:48:03;;;;;;;1.23;0.80;;;12.40;52.50;;;;;;4989279;28;20533;-66
2022/06/01 07:50:31;;;;;;;4.07;1.10;;;12.40;52.50;;;;;;4989791;28;20129;-65
2022/06/01 07:52:59;;;;;;;1.92;0.85;;;12.30;52.80;;;;;;4988942;28;20125;-67
2022/06/01 07:55:27;;;;;;;2.83;1.05;;;12.30;53.00;;;;;;4989602;28;20047;-66
2022/06/01 08:00:20;;;;;;;3.00;0.80;;;12.30;53.70;;;;;;4985989;28;20042;-66
2022/06/01 08:02:47;;;;;;;1.05;0.80;;;12.30;53.60;;;;;;4959052;28;20457;-67
2022/06/01 08:05:15;;;;;;;2.85;0.80;;;12.30;53.40;;;;;;4977321;28;20149;-67
2022/06/01 08:07:43;;;;;;;3.45;1.05;;;12.30;53.70;;;;;;4978060;28;20042;-65
2022/06/01 08:10:11;;;;;;;1.35;0.70;;;12.20;54.20;;;;;;5004357;28;20041;-65
2022/06/01 08:15:24;;;;;;;1.67;0.70;;;12.20;54.30;;;;;;4969376;28;20098;-66
2022/06/01 08:17:51;;;;;;;4.03;0.80;;;12.20;54.00;;;;;;4986936;28;20061;-67
2022/06/01 08:20:18;;;;;;;4.00;0.77;;;12.20;54.30;;;;;;5001514;28;20436;-67
2022/06/01 08:22:45;;;;;;;2.55;0.90;;;12.20;54.90;;;;;;4999583;28;20575;-67
2022/06/01 08:25:13;;;;;;;2.30;0.80;;;12.20;54.60;;;;;;5004146;28;20404;-69
2022/06/01 08:27:40;;;;;;;0.93;0.60;;;12.20;54.50;;;;;;4984242;28;20035;-68
2022/06/01 08:30:08;;;;;;;1.23;0.70;;;12.30;54.70;;;;;;4995451;28;20468;-69
2022/06/01 08:32:35;;;;;;;1.05;0.70;;;12.20;54.80;;;;;;4986487;28;20027;-69
2022/06/01 08:35:04;;;;;;;1.60;0.52;;;12.20;55.10;;;;;;4983523;28;20034;-69
2022/06/01 08:37:31;;;;;;;0.98;0.60;;;12.20;54.90;;;;;;4996778;28;20074;-68
2022/06/01 08:39:59;;;;;;;1.33;0.80;;;12.20;55.20;;;;;;4988932;28;20117;-69
2022/06/01 08:42:26;;;;;;;1.73;0.93;;;12.20;55.40;;;;;;5001523;28;20489;-69
2022/06/01 08:44:54;;;;;;;1.30;0.73;;;12.20;55.70;;;;;;4968352;28;20078;-69
2022/06/01 08:47:27;;;;;;;2.15;0.98;;;12.10;55.60;;;;;;4970884;28;20054;-69
2022/06/01 08:49:57;;;;;;;1.10;0.75;;;12.10;56.10;;;;;;4965265;28;20026;-68
2022/06/01 08:52:24;;;;;;;4.00;0.75;;;12.00;56.20;;;;;;4974783;28;20540;-68
2022/06/01 08:54:51;;;;;;;1.50;0.73;;;12.10;56.30;;;;;;4954470;28;20476;-69
2022/06/01 08:57:28;;;;;;;1.33;0.73;;;12.00;56.40;;;;;;4988785;28;20049;-69
2022/06/01 09:00:19;;;;;;;0.90;0.63;;;12.00;56.60;;;;;;4956179;28;20508;-69
2022/06/01 09:03:02;;;;;;;1.23;0.82;;;12.00;57.10;;;;;;4988552;28;20073;-69
2022/06/01 09:05:41;;;;;;;1.58;0.93;;;12.10;57.10;;;;;;5007974;28;20030;-68
2022/06/01 09:08:08;;;;;;;1.38;0.85;;;12.10;57.50;;;;;;4990720;28;20050;-69
2022/06/01 09:10:46;;;;;;;4.10;0.95;;;12.00;57.10;;;;;;5008392;28;20508;-69
2022/06/01 09:13:23;;;;;;;1.27;0.55;;;12.00;57.20;;;;;;4983638;28;20046;-69
2022/06/01 09:16:03;;;;;;;1.13;0.70;;;12.00;57.40;;;;;;4985444;28;20038;-69
2022/06/01 09:18:51;;;;;;;1.95;0.90;;;12.00;57.80;;;;;;4991070;28;20125;-69
2022/06/01 09:24:10;;;;;;;1.00;0.80;;;12.00;58.00;;;;;;4993888;28;20165;-68
2022/06/01 09:26:54;;;;;;;2.35;1.00;;;11.90;58.00;;;;;;5004650;28;20052;-70
2022/06/01 11:28:49;;;;;;;1.30;0.98;;;11.40;60.90;;;;;;4975832;28;20138;-70
2022/06/01 11:31:20;;;;;;;1.45;1.15;;;11.40;60.50;;;;;;5002862;28;20089;-70
2022/06/01 11:33:55;;;;;;;1.85;1.17;;;11.40;61.00;;;;;;4960001;28;20034;-69
2022/06/01 11:36:25;;;;;;;1.75;0.90;;;11.40;61.00;;;;;;4975863;28;20061;-70
2022/06/01 11:39:27;;;;;;;2.13;1.15;;;11.40;61.40;;;;;;4986900;28;20042;-70
2022/06/01 11:42:02;;;;;;;2.20;1.10;;;11.40;61.20;;;;;;4978124;28;20069;-70
2022/06/01 11:44:40;;;;;;;1.25;0.90;;;11.40;61.20;;;;;;4959934;28;20470;-70
2022/06/01 11:47:18;;;;;;;1.40;0.90;;;11.40;61.40;;;;;;4952802;28;20038;-69
2022/06/01 11:50:12;;;;;;;1.58;1.00;;;11.40;61.60;;;;;;4960476;28;20039;-70
2022/06/01 11:52:45;;;;;;;2.17;0.98;;;11.40;61.90;;;;;;4978264;28;20113;-70
2022/06/01 11:55:37;;;;;;;1.48;0.93;;;11.40;62.10;;;;;;4985559;28;20057;-70
2022/06/01 11:58:05;;;;;;;1.55;1.13;;;11.40;61.90;;;;;;4975360;28;20208;-70
2022/06/01 12:00:51;;;;;;;1.50;1.00;;;11.40;62.30;;;;;;4986931;28;20039;-70
2022/06/01 12:03:24;;;;;;;1.20;0.80;;;11.30;62.40;;;;;;4964904;28;20035;-70
2022/06/01 12:06:04;;;;;;;2.03;1.00;;;11.30;62.60;;;;;;4992246;28;20073;-70
2022/06/01 12:08:33;;;;;;;1.45;0.90;;;11.30;62.40;;;;;;4992352;28;20038;-70
2022/06/01 12:11:03;;;;;;;2.28;1.10;;;11.30;62.80;;;;;;4989458;28;20518;-70
2022/06/01 12:13:52;;;;;;;2.03;1.00;;;11.30;62.80;;;;;;4953483;28;20101;-70
2022/06/01 12:16:22;;;;;;;0.98;0.93;;;11.40;62.90;;;;;;4970444;28;20030;-70
2022/06/01 12:19:13;;;;;;;4.65;1.23;;;11.30;63.10;;;;;;4992288;28;20496;-70
2022/06/01 12:21:43;;;;;;;;;;;11.30;63.60;;;;;;4992758;28;20121;-70
2022/06/01 12:29:54;;;;;;;2.65;1.00;;;11.30;63.90;;;;;;5001022;28;20138;-70
2022/06/01 12:32:21;;;;;;;1.52;0.80;;;11.30;63.80;;;;;;4994114;28;20057;-70
2022/06/01 12:35:14;;;;;;;1.13;0.80;;;11.30;64.10;;;;;;5011694;28;20404;-70
2022/06/01 12:38:04;;;;;;;2.88;0.80;;;11.30;64.50;;;;;;4972472;28;20049;-70
2022/06/01 12:40:31;;;;;;;2.58;1.10;;;11.30;64.50;;;;;;5007106;28;20428;-70
2022/06/01 12:43:00;;;;;;;1.52;1.00;;;11.40;64.80;;;;;;4994260;28;20073;-70
2022/06/01 12:45:37;;;;;;;1.75;1.20;;;11.30;64.20;;;;;;4991010;28;20061;-70
2022/06/01 12:48:27;;;;;;;0.90;0.75;;;11.30;64.60;;;;;;5011633;28;20452;-70
2022/06/01 12:50:58;;;;;;;1.65;0.90;;;11.30;64.80;;;;;;5008375;28;20113;-70
2022/06/01 12:53:26;;;;;;;;;;;11.30;64.80;;;;;;5008814;28;20425;-70
2022/06/01 12:56:16;;;;;;;4.28;0.70;;;11.40;64.90;;;;;;5012083;28;20036;-70
2022/06/01 12:58:44;;;;;;;3.60;0.80;;;11.40;64.80;;;;;;5011309;28;20105;-70
2022/06/01 13:01:12;;;;;;;1.45;0.90;;;11.40;64.90;;;;;;4978373;28;20475;-70
2022/06/01 13:03:44;;;;;;;0.77;0.68;;;11.40;65.30;;;;;;4990161;28;20042;-70
2022/06/01 13:06:13;;;;;;;0.68;0.60;;;11.40;65.10;;;;;;4986681;28;20117;-70
2022/06/01 13:08:41;;;;;;;1.23;0.68;;;11.40;65.10;;;;;;4977969;28;20038;-70
2022/06/01 13:11:25;;;;;;;1.58;0.77;;;11.30;64.80;;;;;;5010971;28;20033;-70
2022/06/01 13:14:01;;;;;;;1.27;0.70;;;11.40;65.40;;;;;;4982299;28;20046;-70
2022/06/01 13:16:42;;;;;;;1.77;0.80;;;11.40;65.10;;;;;;4985994;28;20125;-70
2022/06/01 13:19:24;;;;;;;;;;;11.40;65.00;;;;;;4991228;28;20033;-70
2022/06/01 13:21:55;;;;;;;1.38;0.70;;;11.40;65.10;;;;;;5013124;28;20007;-70
2022/06/01 13:24:22;;;;;;;1.15;0.52;;;11.40;65.20;;;;;;4996646;28;20042;-70
2022/06/01 13:26:51;;;;;;;2.58;0.70;;;11.40;65.60;;;;;;4986217;28;20030;-70
2022/06/01 13:29:19;;;;;;;1.30;1.00;;;11.40;65.60;;;;;;4997461;28;20049;-70
2022/06/01 13:31:51;;;;;;;0.98;0.68;;;11.30;65.70;;;;;;5015132;28;20034;-70
2022/06/01 13:34:52;;;;;;;0.93;0.70;;;11.40;66.00;;;;;;4997458;28;20044;-70
2022/06/01 13:37:27;;;;;;;2.65;0.70;;;11.30;66.00;;;;;;5001510;28;20041;-70
2022/06/01 13:39:55;;;;;;;2.20;1.10;;;11.30;66.40;;;;;;4971004;28;20030;-70
2022/06/01 13:42:32;;;;;;;3.50;0.80;;;11.30;66.10;;;;;;5014554;28;20404;-70
2022/06/01 13:45:05;;;;;;;0.98;0.73;;;11.30;66.40;;;;;;4997919;28;20063;-70
2022/06/01 13:47:51;;;;;;;2.05;0.75;;;11.30;66.50;;;;;;5014418;28;20045;-70
2022/06/01 13:50:24;;;;;;;1.00;0.60;;;11.30;66.70;;;;;;4999323;28;20042;-70
2022/06/01 13:52:55;;;;;;;2.28;0.80;;;11.30;66.40;;;;;;5010995;28;20133;-70
2022/06/01 13:55:25;;;;;;;0.75;0.55;;;11.20;66.30;;;;;;5000916;28;20038;-70
2022/06/01 13:57:57;;;;;;;1.38;0.68;;;11.20;66.20;;;;;;4998768;28;20039;-70
2022/06/01 14:00:33;;;;;;;1.83;0.80;;;11.20;66.40;;;;;;5000519;28;20037;-70
2022/06/01 14:03:23;;;;;;;3.83;0.55;;;11.20;66.50;;;;;;5014225;28;20117;-70
2022/06/01 14:06:10;;;;;;;2.78;1.10;;;11.30;66.50;;;;;;5005954;28;20129;-70
2022/06/01 14:08:50;;;;;;;2.53;0.70;;;11.20;66.40;;;;;;4996508;28;20040;-70
2022/06/01 14:11:26;;;;;;;2.40;0.55;;;11.20;66.70;;;;;;4997194;28;20484;-69
2022/06/01 14:13:54;;;;;;;4.38;0.70;;;11.20;66.90;;;;;;5001891;28;20046;-70
2022/06/01 14:16:21;;;;;;;0.63;0.47;;;11.20;66.90;;;;;;4990569;28;20034;-70
2022/06/01 14:19:02;;;;;;;1.35;0.63;;;11.20;67.20;;;;;;4996769;28;20037;-70
2022/06/01 14:21:29;;;;;;;1.02;0.70;;;11.20;67.10;;;;;;4996823;28;20036;-70
2022/06/01 14:23:56;;;;;;;0.98;0.55;;;11.20;67.50;;;;;;4996677;28;20061;-70
2022/06/01 14:29:09;;;;;;;0.65;0.52;;;11.20;67.70;;;;;;5013678;28;20040;-70
2022/06/01 14:31:38;;;;;;;1.02;0.60;;;11.20;67.80;;;;;;5001654;28;20030;-70
2022/06/01 14:34:11;;;;;;;2.80;0.95;;;11.20;67.80;;;;;;4964709;28;20385;-70
2022/06/01 14:36:38;;;;;;;1.50;0.70;;;11.10;67.80;;;;;;4980891;28;20037;-70
2022/06/01 14:39:06;;;;;;;0.75;0.70;;;11.20;67.80;;;;;;5013413;28;20444;-70
2022/06/01 14:41:44;;;;;;;1.23;0.80;;;11.10;67.80;;;;;;5005342;28;20035;-70
2022/06/01 14:44:16;;;;;;;4.00;1.25;;;11.10;67.80;;;;;;4982234;28;20394;-70
2022/06/01 14:46:43;;;;;;;1.13;0.75;;;11.10;67.80;;;;;;5013648;28;20022;-70
2022/06/01 14:49:10;;;;;;;2.45;0.85;;;11.10;67.70;;;;;;4979457;28;20037;-70
2022/06/01 14:51:39;;;;;;;1.55;0.90;;;11.10;67.60;;;;;;5010376;28;20066;-70
2022/06/01 14:54:07;;;;;;;1.52;0.60;;;11.20;67.50;;;;;;4995550;28;20038;-71
2022/06/01 14:56:34;;;;;;;1.60;0.60;;;11.20;67.40;;;;;;4979791;28;20030;-70
2022/06/01 14:59:04;;;;;;;0.68;0.63;;;11.20;67.40;;;;;;5013636;28;20037;-70
2022/06/01 15:01:41;;;;;;;0.50;0.50;;;11.20;67.00;;;;;;4971500;28;20045;-70
2022/06/01 15:04:13;;;;;;;0.90;0.60;;;11.20;67.30;;;;;;4972937;28;20026;-70
2022/06/01 15:06:41;;;;;;;1.55;0.65;;;11.20;67.00;;;;;;4995545;28;20030;-70
2022/06/01 15:09:08;;;;;;;0.73;0.68;;;11.20;67.10;;;;;;4995765;28;20046;-70
2022/06/01 15:11:35;;;;;;;0.80;0.50;;;11.20;66.70;;;;;;4987404;28;20046;-70
2022/06/01 15:14:03;;;;;;;1.25;0.98;;;11.20;66.60;;;;;;5012811;28;20496;-70
2022/06/01 15:16:30;;;;;;;0.80;0.60;;;11.20;66.50;;;;;;4995550;28;20036;-70
2022/06/01 15:18:58;;;;;;;0.43;0.43;;;11.20;66.60;;;;;;4978263;28;20080;-70
2022/06/01 15:21:25;;;;;;;7.35;0.75;;;11.20;67.00;;;;;;4963267;28;20029;-70
2022/06/01 15:23:53;;;;;;;1.75;0.70;;;11.20;66.80;;;;;;4991530;28;20038;-70
2022/06/01 15:26:20;;;;;;;2.35;1.00;;;11.20;66.70;;;;;;5006813;28;20030;-70
2022/06/01 15:28:47;;;;;;;3.38;0.70;;;11.10;66.80;;;;;;5012732;28;20120;-70
2022/06/01 15:39:32;;;;;;;3.50;0.40;;;11.10;66.50;;;;;;4973719;28;20046;-70
2022/06/01 15:42:00;;;;;;;1.52;0.68;;;11.10;66.50;;;;;;5012027;28;20058;-70
2022/06/01 15:44:28;;;;;;;1.67;0.73;;;11.10;66.50;;;;;;4994543;28;20034;-70
2022/06/01 15:46:55;;;;;;;3.22;0.75;;;11.00;66.40;;;;;;4968131;28;20075;-70
2022/06/01 15:49:23;;;;;;;4.47;0.60;;;11.00;66.50;;;;;;4981044;28;20050;-70
2022/06/01 15:51:58;;;;;;;1.17;0.68;;;11.00;66.60;;;;;;4995278;28;20088;-71
2022/06/01 15:54:25;;;;;;;1.95;0.88;;;11.00;66.60;;;;;;4994881;28;20040;-70
2022/06/01 15:56:53;;;;;;;2.47;0.73;;;11.00;66.50;;;;;;4994624;28;20136;-70
2022/06/01 15:59:20;;;;;;;3.00;0.65;;;11.10;66.70;;;;;;4994577;28;20030;-70
2022/06/01 16:01:47;;;;;;;1.45;0.60;;;11.10;66.10;;;;;;5011708;28;20050;-70
2022/06/01 16:04:14;;;;;;;2.25;0.45;;;11.00;66.70;;;;;;4978747;28;20065;-70
2022/06/01 16:06:42;;;;;;;8.07;1.00;;;11.00;66.40;;;;;;5012224;28;20050;-71
2022/06/01 16:09:10;;;;;;;2.05;0.70;;;11.00;66.40;;;;;;5012248;28;20200;-70
2022/06/01 16:11:37;;;;;;;2.15;0.60;;;11.00;66.10;;;;;;5010798;28;20038;-70
2022/06/01 16:14:06;;;;;;;1.45;0.52;;;11.00;66.20;;;;;;4998403;28;20038;-70
2022/06/01 16:16:34;;;;;;;1.60;0.50;;;11.00;66.40;;;;;;4994893;28;20492;-70
2022/06/01 16:19:05;;;;;;;0.95;0.60;;;11.00;66.50;;;;;;4993179;28;20038;-70
2022/06/01 16:21:33;;;;;;;0.70;0.60;;;11.00;66.50;;;;;;4985506;28;20035;-70
2022/06/01 16:24:00;;;;;;;1.60;0.60;;;11.00;66.40;;;;;;4993616;28;20041;-71
2022/06/01 16:26:27;;;;;;;1.90;0.60;;;11.00;66.40;;;;;;5011838;28;20038;-70
2022/06/01 16:28:55;;;;;;;2.78;0.82;;;11.00;66.50;;;;;;4967384;28;20101;-71
2022/06/01 16:31:23;;;;;;;1.40;0.60;;;10.90;66.50;;;;;;4988782;28;20092;-71
2022/06/01 16:33:51;;;;;;;2.95;0.88;;;10.90;66.70;;;;;;4962106;28;20562;-70
2022/06/01 16:36:39;;;;;;;1.85;0.70;;;11.00;66.80;;;;;;5001805;28;20042;-71
2022/06/01 16:39:09;;;;;;;1.35;0.47;;;11.00;66.80;;;;;;4996441;28;20034;-70
2022/06/01 16:41:37;;;;;;;2.37;0.70;;;10.90;66.80;;;;;;4994300;28;20080;-70
2022/06/01 16:44:05;;;;;;;1.27;0.75;;;10.90;66.70;;;;;;4978151;28;20037;-70
2022/06/01 16:46:32;;;;;;;1.80;0.40;;;10.90;66.90;;;;;;4994539;28;20520;-70
2022/06/01 16:48:59;;;;;;;0.90;0.50;;;10.90;66.90;;;;;;5002916;28;20389;-70
2022/06/01 16:51:27;;;;;;;2.17;1.00;;;10.90;66.80;;;;;;4992988;28;20093;-70
2022/06/01 16:53:55;;;;;;;5.82;0.85;;;10.80;67.00;;;;;;4998615;28;20041;-70
2022/06/01 16:56:22;;;;;;;2.92;0.85;;;10.80;66.90;;;;;;4996875;28;20030;-71
2022/06/01 16:58:49;;;;;;;0.73;0.40;;;10.80;67.00;;;;;;5014269;28;20038;-70
2022/06/01 17:01:17;;;;;;;1.38;0.73;;;10.80;67.20;;;;;;4981340;28;20047;-71
2022/06/01 17:03:44;;;;;;;1.13;0.57;;;10.80;67.20;;;;;;5014072;28;20030;-71
2022/06/01 17:06:11;;;;;;;1.63;0.70;;;10.80;67.30;;;;;;4995504;28;20030;-70
2022/06/01 17:08:38;;;;;;;0.82;0.35;;;10.80;67.10;;;;;;4958875;28;20058;-70
2022/06/01 17:11:05;;;;;;;1.48;0.50;;;10.80;67.10;;;;;;5004849;28;20022;-70
2022/06/01 17:13:33;;;;;;;1.58;0.60;;;10.70;67.10;;;;;;5011247;28;20125;-70
2022/06/01 17:16:00;;;;;;;2.13;1.05;;;10.70;67.30;;;;;;5015561;28;20026;-70
2022/06/01 17:18:27;;;;;;;1.23;0.63;;;10.70;67.40;;;;;;5015455;28;20036;-70
2022/06/01 17:20:54;;;;;;;0.80;0.57;;;10.70;67.10;;;;;;4975081;28;20032;-70
2022/06/01 17:23:22;;;;;;;1.38;0.70;;;10.70;67.60;;;;;;5003642;28;20418;-70
2022/06/01 17:25:49;;;;;;;2.53;0.85;;;10.70;67.60;;;;;;4995957;28;20054;-71
2022/06/01 17:28:17;;;;;;;2.90;0.80;;;10.70;67.50;;;;;;5014885;28;20057;-71
2022/06/01 17:30:44;;;;;;;2.97;0.90;;;10.70;67.70;;;;;;4997176;28;20366;-70
2022/06/01 17:33:29;;;;;;;0.60;0.52;;;10.70;67.60;;;;;;4997684;28;20551;-70
2022/06/01 17:35:57;;;;;;;1.00;0.68;;;10.70;67.80;;;;;;4985837;28;20038;-70
2022/06/01 17:38:24;;;;;;;2.47;0.60;;;10.70;67.70;;;;;;4978098;28;20034;-70
2022/06/01 17:40:51;;;;;;;1.58;0.68;;;10.70;68.00;;;;;;5010897;28;20042;-71
2022/06/01 17:43:19;;;;;;;1.27;0.82;;;10.70;68.00;;;;;;5010273;28;20030;-71
2022/06/01 17:45:46;;;;;;;1.33;0.70;;;10.70;68.10;;;;;;4990887;28;20023;-70
2022/06/01 17:48:22;;;;;;;1.25;0.70;;;10.60;68.20;;;;;;4972138;28;20042;-70
2022/06/01 17:50:49;;;;;;;1.15;0.57;;;10.60;68.20;;;;;;4993515;28;20109;-70
2022/06/01 17:53:17;;;;;;;1.52;0.70;;;10.60;68.10;;;;;;4983700;28;20049;-70
2022/06/01 17:55:44;;;;;;;3.08;0.73;;;10.60;68.60;;;;;;5014408;28;20069;-70
2022/06/01 17:58:12;;;;;;;1.40;0.70;;;10.60;68.40;;;;;;4996713;28;20034;-70
2022/06/01 18:00:39;;;;;;;2.72;0.90;;;10.50;68.50;;;;;;4983702;28;20030;-70
2022/06/01 18:03:07;;;;;;;2.22;0.90;;;10.60;68.40;;;;;;4996916;28;20171;-70
2022/06/01 18:05:36;;;;;;;2.15;0.68;;;10.50;68.30;;;;;;4969313;28;20428;-70
2022/06/01 18:08:10;;;;;;;0.85;0.63;;;10.50;68.60;;;;;;4977161;28;20054;-70
2022/06/01 18:10:37;;;;;;;1.75;0.90;;;10.50;68.70;;;;;;4963985;28;20149;-70
2022/06/01 18:13:04;;;;;;;0.93;0.50;;;10.50;68.70;;;;;;5011885;28;20041;-70
2022/06/01 18:15:33;;;;;;;2.85;0.70;;;10.50;68.90;;;;;;5002674;28;20087;-70
2022/06/01 18:18:01;;;;;;;1.23;0.70;;;10.40;69.30;;;;;;4986545;28;20038;-70
2022/06/01 18:20:36;;;;;;;1.67;0.60;;;10.40;69.50;;;;;;4996514;28;20033;-70
2022/06/01 18:23:04;;;;;;;2.65;0.90;;;10.40;69.60;;;;;;4988703;28;20082;-70
2022/06/01 18:25:42;;;;;;;3.10;1.10;;;10.40;69.70;;;;;;4982844;28;20045;-70
2022/06/01 18:28:14;;;;;;;2.47;0.88;;;10.40;69.70;;;;;;4996514;28;20092;-70
2022/06/01 18:30:43;;;;;;;2.10;0.95;;;10.30;70.10;;;;;;4996963;28;20257;-70
2022/06/01 18:33:10;;;;;;;2.03;0.90;;;10.30;70.90;;;;;;4996105;28;20030;-70
2022/06/01 18:35:40;;;;;;;1.63;1.05;;;10.30;71.60;;;;;;5013880;28;20362;-70
2022/06/01 18:38:11;;;;;;;2.03;0.80;;;10.20;72.60;;;;;;5013968;28;20022;-70
2022/06/01 18:40:43;;;;;;;2.15;0.90;;;10.10;72.50;;;;;;5013569;28;20036;-70
2022/06/01 18:43:10;;;;;;;1.67;0.95;;;10.10;72.60;;;;;;4996914;28;20124;-70
2022/06/01 18:45:37;;;;;;;4.55;1.13;;;10.10;73.20;;;;;;4995647;28;20034;-70
2022/06/01 18:48:05;;;;;;;1.85;0.90;;;10.00;73.60;;;;;;4996120;28;20113;-70
2022/06/01 18:50:33;;;;;;;1.70;0.90;;;10.10;73.00;;;;;;5013522;28;20037;-70
2022/06/01 18:53:00;;;;;;;1.25;0.90;;;10.00;73.10;;;;;;4980345;28;20034;-70
2022/06/01 18:55:27;;;;;;;1.98;1.00;;;10.00;72.90;;;;;;5013015;28;20064;-70
2022/06/01 18:57:54;;;;;;;5.15;1.00;;;9.90;73.50;;;;;;4979447;28;20030;-70
2022/06/01 19:03:07;;;;;;;1.65;0.77;;;9.90;73.90;;;;;;5002464;28;20095;-70
2022/06/01 19:05:37;;;;;;;2.67;1.00;;;9.90;73.60;;;;;;5012317;28;20381;-70
2022/06/01 19:08:26;;;;;;;1.27;0.85;;;9.90;73.60;;;;;;4995959;28;20053;-70
2022/06/01 19:11:01;;;;;;;2.20;0.95;;;9.90;73.70;;;;;;5012639;28;20399;-70
2022/06/01 19:13:31;;;;;;;1.30;0.90;;;9.70;73.70;;;;;;5012945;28;20030;-69
2022/06/01 19:16:29;;;;;;;4.85;1.00;;;9.80;73.60;;;;;;5012510;28;20077;-71
2022/06/01 19:18:58;;;;;;;1.30;0.80;;;9.80;73.80;;;;;;5005102;28;20038;-70
2022/06/01 19:21:26;;;;;;;2.25;0.95;;;9.80;74.80;;;;;;5010027;28;20045;-70
2022/06/01 19:23:53;;;;;;;1.85;0.93;;;9.80;74.20;;;;;;5012434;28;20476;-70
2022/06/01 19:26:21;;;;;;;4.85;1.10;;;9.80;74.50;;;;;;5012273;28;20037;-69
2022/06/01 19:28:48;;;;;;;5.80;0.90;;;9.80;73.70;;;;;;4994996;28;20036;-69
2022/06/01 19:31:19;;;;;;;1.95;1.10;;;9.90;73.30;;;;;;4994885;28;20107;-69
2022/06/01 19:33:46;;;;;;;3.13;1.20;;;9.90;73.20;;;;;;5011417;28;20497;-70
2022/06/01 19:44:30;;;;;;;4.53;1.00;;;9.90;73.00;;;;;;4998172;28;20049;-69
2022/06/01 19:46:57;;;;;;;4.25;1.20;;;9.90;73.00;;;;;;4994442;28;20030;-69
2022/06/01 19:49:24;;;;;;;2.05;0.88;;;9.90;73.10;;;;;;5012586;28;20042;-70
2022/06/01 19:51:52;;;;;;;3.33;1.48;;;9.90;73.30;;;;;;5012282;28;20052;-69
2022/06/01 19:54:19;;;;;;;2.38;1.30;;;9.90;73.30;;;;;;5012240;28;20105;-69
2022/06/01 19:56:46;;;;;;;3.90;1.17;;;9.90;73.40;;;;;;4994794;28;20056;-70
2022/06/01 19:59:17;;;;;;;4.85;1.08;;;9.80;73.60;;;;;;5012191;28;20044;-70
2022/06/01 20:01:44;;;;;;;2.15;1.17;;;9.90;73.60;;;;;;5012176;28;20041;-69
2022/06/01 20:04:12;;;;;;;4.10;1.10;;;9.90;73.70;;;;;;5011965;28;20050;-70
2022/06/01 20:06:39;;;;;;;2.65;1.02;;;9.90;73.80;;;;;;5012100;28;20038;-70
2022/06/01 20:09:07;;;;;;;9.90;1.13;;;9.80;73.90;;;;;;5011723;28;20050;-70
2022/06/01 23:57:01;;;;;;;2.10;1.00;;;11.30;68.50;;;;;;5006599;28;20440;-72
2022/06/01 23:59:34;;;;;;;1.73;1.40;;;11.30;68.90;;;;;;5011874;28;20121;-71
